Caddoa, Colorado
Current Conditions -  °F | °C
As of 7:53 PM on Wednesday 22 Oct 2014 (Local Time) from KLAA Reporting Station
Clear Clear  
Wind Chill: 58°   Ceiling: Unl
Heat Index: 58°   Visibility: 10mi
Dew Point: 46°   Wind: 8mph
Humidity: 65%   Direction: 120°ESE
Pressure: 30.06"   Gusts: NA
Location:  38.0502°N, 102.919°W
Report Text: KLAA 230153Z AUTO 12007KT 10SM CLR 14/08 A3006 RMK AO2 SLP158 T01440078
Loading
Personal Weather Stations






























Interactive Weather Map
Tropical Storm Tracking
New forecast layout! Learn more

10-Day Weather Forecast

Advertisements
Track Severe Weather on mobile